createdAt,value
2023-02-21T00:00:18.305Z,2.45
2023-02-21T00:06:39.732Z,2.65
2023-02-21T00:13:00.144Z,2.80
2023-02-21T00:19:20.454Z,2.47
2023-02-21T00:25:40.698Z,2.43
2023-02-21T00:32:01.033Z,2.47
2023-02-21T00:38:21.254Z,2.90
2023-02-21T00:44:41.552Z,2.70
2023-02-21T00:51:01.762Z,2.80
2023-02-21T00:57:22.535Z,2.63
2023-02-21T01:03:42.824Z,3.03
2023-02-21T01:10:03.138Z,3.03
2023-02-21T01:16:25.453Z,2.87
2023-02-21T01:22:46.230Z,3.20
2023-02-21T01:29:07.213Z,3.03
2023-02-21T01:35:27.480Z,2.70
2023-02-21T01:41:47.740Z,3.22
2023-02-21T01:48:07.976Z,3.27
2023-02-21T01:54:30.093Z,3.30
2023-02-21T02:00:50.394Z,3.33
2023-02-21T02:07:10.853Z,3.20
2023-02-21T02:13:23.013Z,3.10
2023-02-21T02:19:42.022Z,3.00
2023-02-21T02:25:59.876Z,3.30
2023-02-21T02:32:14.244Z,3.50
2023-02-21T02:38:24.185Z,2.90
2023-02-21T02:44:37.639Z,3.22
2023-02-21T02:50:39.914Z,3.33
2023-02-21T02:56:41.699Z,3.50
2023-02-21T03:02:51.191Z,4.00
2023-02-21T03:08:56.114Z,4.18
2023-02-21T03:15:04.102Z,4.13
2023-02-21T03:21:07.429Z,4.53
2023-02-21T03:27:09.638Z,3.88
2023-02-21T03:33:23.859Z,4.07
2023-02-21T03:39:25.504Z,4.68
2023-02-21T03:45:27.312Z,4.80
2023-02-21T03:52:01.140Z,4.70
2023-02-21T03:58:02.882Z,4.82
2023-02-21T04:04:06.906Z,5.00
2023-02-21T04:10:10.005Z,5.32
2023-02-21T04:16:17.040Z,4.65
2023-02-21T04:22:18.910Z,5.23
2023-02-21T04:28:20.575Z,5.57
2023-02-21T04:34:23.296Z,6.00
2023-02-21T04:40:25.026Z,5.85
2023-02-21T04:46:26.842Z,5.80
2023-02-21T04:52:28.536Z,5.70
2023-02-21T04:58:36.470Z,5.60
2023-02-21T05:04:45.995Z,6.60
2023-02-21T05:10:47.648Z,5.95
2023-02-21T05:16:50.190Z,5.78
2023-02-21T05:22:51.629Z,5.40
2023-02-21T05:28:53.384Z,6.15
2023-02-21T05:34:55.091Z,6.07
2023-02-21T05:40:56.548Z,6.68
2023-02-21T05:46:58.032Z,6.57
2023-02-21T05:53:00.369Z,6.30
2023-02-21T05:59:01.852Z,6.82
2023-02-21T06:05:03.346Z,6.87
2023-02-21T06:11:05.129Z,6.05
2023-02-21T06:17:06.673Z,6.03
2023-02-21T06:23:08.163Z,7.27
2023-02-21T06:29:10.214Z,6.60
2023-02-21T06:35:12.217Z,6.80
2023-02-21T06:41:15.679Z,7.07
2023-02-21T06:47:17.350Z,6.75
2023-02-21T06:53:18.851Z,7.43
2023-02-21T06:59:20.327Z,7.07
2023-02-21T07:05:21.754Z,7.03
2023-02-21T07:11:23.189Z,6.90
2023-02-21T07:17:24.641Z,7.68
2023-02-21T07:23:26.161Z,7.17
2023-02-21T07:29:27.723Z,6.40
2023-02-21T07:35:29.240Z,5.83
2023-02-21T07:41:30.754Z,6.40
2023-02-21T07:47:32.307Z,6.47
2023-02-21T07:53:33.990Z,5.93
2023-02-21T07:59:35.587Z,7.00
2023-02-21T08:05:37.063Z,7.17
2023-02-21T08:11:40.263Z,7.18
2023-02-21T08:17:41.817Z,6.13
2023-02-21T08:23:43.281Z,5.83
2023-02-21T08:29:44.977Z,6.30
2023-02-21T08:35:46.425Z,6.00
2023-02-21T08:41:52.309Z,6.50
2023-02-21T08:47:54.210Z,6.35
2023-02-21T08:53:55.668Z,6.30
2023-02-21T08:59:57.150Z,7.30
2023-02-21T09:05:59.546Z,6.43
2023-02-21T09:12:03.218Z,6.47
2023-02-21T09:18:06.466Z,6.28
2023-02-21T09:24:07.945Z,6.57
2023-02-21T09:30:11.433Z,8.38
2023-02-21T09:36:12.962Z,8.40
2023-02-21T09:42:16.530Z,7.07
2023-02-21T09:48:18.627Z,6.95
2023-02-21T09:54:32.329Z,6.67
2023-02-21T10:00:35.293Z,6.78
2023-02-21T10:06:43.325Z,6.30
2023-02-21T10:13:17.265Z,6.82
2023-02-21T10:19:21.551Z,5.70
2023-02-21T10:25:25.526Z,5.90
2023-02-21T10:31:37.824Z,5.82
2023-02-21T10:37:47.966Z,5.50
2023-02-21T10:43:52.269Z,5.70
2023-02-21T10:50:01.264Z,5.53
2023-02-21T10:56:06.818Z,5.50
2023-02-21T11:02:27.055Z,4.68
2023-02-21T11:08:44.339Z,4.90
2023-02-21T11:14:52.051Z,4.80
2023-02-21T11:20:53.685Z,4.68
2023-02-21T11:26:55.206Z,4.30
2023-02-21T11:32:57.785Z,5.00
2023-02-21T11:39:07.509Z,4.43
2023-02-21T11:45:28.361Z,4.05
2023-02-21T11:51:36.024Z,4.10
2023-02-21T11:57:57.754Z,4.00
2023-02-21T12:04:04.258Z,4.05
2023-02-21T12:10:24.595Z,3.83
2023-02-21T12:16:44.867Z,4.07
2023-02-21T12:22:58.807Z,4.10
2023-02-21T12:29:10.248Z,4.23
2023-02-21T12:35:28.668Z,3.88
2023-02-21T12:42:06.102Z,3.67
2023-02-21T12:48:16.658Z,3.55
2023-02-21T12:54:34.751Z,3.22
2023-02-21T13:00:54.458Z,3.70
2023-02-21T13:06:59.161Z,3.20
2023-02-21T13:13:03.335Z,3.87
2023-02-21T13:19:07.655Z,3.20
2023-02-21T13:25:12.229Z,3.40
2023-02-21T13:31:21.572Z,3.53
2023-02-21T13:37:24.798Z,3.30
2023-02-21T13:43:29.307Z,3.57
2023-02-21T13:49:50.739Z,3.03
2023-02-21T13:56:12.555Z,3.65
2023-02-21T14:02:21.284Z,3.63
2023-02-21T14:08:31.922Z,4.10
2023-02-21T14:14:39.616Z,4.23
2023-02-21T14:20:41.453Z,4.07
2023-02-21T14:26:49.987Z,3.72
2023-02-21T14:32:54.816Z,3.67
2023-02-21T14:38:56.527Z,3.35
2023-02-21T14:45:10.214Z,3.30
2023-02-21T14:51:30.653Z,2.45
2023-02-21T14:57:49.446Z,2.30
2023-02-21T15:04:09.652Z,2.60
2023-02-21T15:10:15.776Z,4.35
2023-02-21T15:16:17.370Z,3.93
2023-02-21T15:22:24.484Z,3.58
2023-02-21T15:28:27.697Z,3.63
2023-02-21T15:34:29.678Z,4.07
2023-02-21T15:40:31.483Z,3.90
2023-02-21T15:46:53.276Z,3.47
2023-02-21T15:52:54.734Z,4.00
2023-02-21T15:59:07.121Z,3.25
2023-02-21T16:05:28.433Z,3.03
2023-02-21T16:11:48.056Z,3.55
2023-02-21T16:18:01.144Z,2.70
2023-02-21T16:24:16.330Z,2.75
2023-02-21T16:30:25.222Z,3.10
2023-02-21T16:36:28.457Z,3.27
2023-02-21T16:42:29.915Z,3.78
2023-02-21T16:48:34.604Z,4.43
2023-02-21T16:54:36.074Z,3.83
2023-02-21T17:00:37.621Z,4.32
2023-02-21T17:06:39.122Z,4.23
2023-02-21T17:12:40.651Z,4.22
2023-02-21T17:18:43.617Z,4.07
2023-02-21T17:24:45.162Z,4.35
2023-02-21T17:30:47.563Z,3.78
2023-02-21T17:36:49.754Z,4.20
2023-02-21T17:42:51.279Z,3.88
2023-02-21T17:48:52.793Z,3.70
2023-02-21T17:54:54.375Z,3.55
2023-02-21T18:00:56.561Z,4.20
2023-02-21T18:06:58.108Z,4.07
2023-02-21T18:13:00.124Z,4.15
2023-02-21T18:19:01.845Z,3.83
2023-02-21T18:25:04.536Z,3.67
2023-02-21T18:31:06.118Z,3.55
2023-02-21T18:37:08.187Z,3.73
2023-02-21T18:43:30.162Z,3.97
2023-02-21T18:49:38.520Z,5.80
2023-02-21T18:55:40.511Z,7.25
2023-02-21T19:01:42.464Z,7.90
2023-02-21T19:07:44.486Z,7.20
2023-02-21T19:13:49.755Z,5.63
2023-02-21T19:19:51.739Z,5.60
2023-02-21T19:25:54.441Z,5.80
2023-02-21T19:31:56.740Z,5.80
2023-02-21T19:38:02.928Z,6.67
2023-02-21T19:44:04.946Z,8.52
2023-02-21T19:50:07.166Z,7.50
2023-02-21T19:56:09.260Z,7.10
2023-02-21T20:02:12.292Z,5.82
2023-02-21T20:08:14.379Z,4.63
2023-02-21T20:14:17.713Z,4.32
2023-02-21T20:20:19.865Z,4.33
2023-02-21T20:26:24.435Z,4.10
2023-02-21T20:32:26.900Z,4.80
2023-02-21T20:38:30.591Z,4.30
2023-02-21T20:44:34.150Z,3.88
2023-02-21T20:50:36.070Z,3.80
2023-02-21T20:56:39.556Z,3.90
2023-02-21T21:02:41.654Z,4.10
2023-02-21T21:08:43.341Z,4.60
2023-02-21T21:14:46.404Z,4.40
2023-02-21T21:20:47.931Z,3.10
2023-02-21T21:26:58.487Z,3.30
2023-02-21T21:33:00.710Z,3.55
2023-02-21T21:39:02.203Z,3.10
2023-02-21T21:45:08.047Z,5.65
2023-02-21T21:51:10.371Z,3.00
2023-02-21T21:57:13.084Z,3.60
2023-02-21T22:03:14.653Z,3.03
2023-02-21T22:09:16.088Z,3.10
2023-02-21T22:15:22.556Z,3.00
2023-02-21T22:21:24.075Z,3.37
2023-02-21T22:27:25.708Z,3.25
2023-02-21T22:33:27.164Z,3.10
2023-02-21T22:39:28.621Z,3.57
2023-02-21T22:45:33.096Z,3.95
2023-02-21T22:51:34.858Z,4.13
2023-02-21T22:57:36.306Z,4.40
2023-02-21T23:03:37.943Z,4.18
2023-02-21T23:09:39.399Z,5.40
2023-02-21T23:15:41.400Z,4.82
2023-02-21T23:21:44.141Z,4.33
2023-02-21T23:27:49.859Z,4.13
2023-02-21T23:33:53.422Z,4.13
2023-02-21T23:39:54.916Z,3.90
2023-02-21T23:45:57.242Z,4.15
2023-02-21T23:52:02.091Z,3.87
2023-02-21T23:58:04.251Z,4.07
